PWSweather.com
Personal Weather Stations
Station Observations
LEOMA1
Leoma, TN 38468

Leoma, TN 38468

Lat: 35.1006941, Lon: -87.3478663

Elevation: 958

Station Type: LaCrosse 2315

www.leomaweather.com

High Low Average
Temperature 62.2°F16.8°C 38.6°F3.7°C 49.0°F9.4°C
Dew Point 58.0°F14.4°C 30.1°F-1.1°C 39.4°F4.1°C
Winds 12.0 mph 19.3 kmh Calm Calm 3.0 mph WSW4.8 kmh WSW
Wind Gusts 15.0 mph24.1 kmh -- 7.0 mph11.3 kmh
Humidity 91% 52% 70%
Pressure 29.89 in1012.2 mb 29.59 in1002.0 mb -
Precipitation 0.00 in0.0 mm - -
Hour Temp Dew Point Humidity Winds Wind Gusts Pressure Precip Precip Rate Daily Precip Total
12:00 AM 62.2°F16.8°C 58.0°F14.4°C 86% Calm Calm 1.0 mph1.6 kmh 29.59 in1002.0 mb 0.00 in0.0 mm 0.00 in0.0 mm 0.00 in0.0 mm
12:10 AM 62.0°F16.7°C 57.8°F14.3°C 86% 2.0 mph WNW3.2 kmh WNW 8.0 mph12.9 kmh 29.59 in1002.0 mb 0.00 in0.0 mm 0.00 in0.0 mm 0.00 in0.0 mm
12:20 AM 61.8°F16.6°C 57.6°F14.2°C 86% 2.0 mph SE3.2 kmh SE 4.0 mph6.4 kmh 29.59 in1002.0 mb 0.00 in0.0 mm 0.00 in0.0 mm 0.00 in0.0 mm
12:30 AM 61.6°F16.4°C 57.4°F14.1°C 86% 2.0 mph ESE3.2 kmh ESE 3.0 mph4.8 kmh 29.59 in1002.0 mb 0.00 in0.0 mm 0.00 in0.0 mm 0.00 in0.0 mm
12:40 AM 61.5°F16.4°C 57.3°F14.1°C 86% Calm Calm 6.0 mph9.7 kmh 29.59 in1002.0 mb 0.00 in0.0 mm 0.00 in0.0 mm 0.00 in0.0 mm
12:50 AM 61.4°F16.3°C 57.2°F14.0°C 86% 1.0 mph SSW1.6 kmh SSW 5.0 mph8.0 kmh 29.59 in1002.0 mb 0.00 in0.0 mm 0.00 in0.0 mm 0.00 in0.0 mm
01:00 AM 61.2°F16.2°C 57.0°F13.9°C 86% Calm Calm 9.0 mph14.5 kmh 29.59 in1002.0 mb 0.00 in0.0 mm 0.00 in0.0 mm 0.00 in0.0 mm
01:10 AM 60.9°F16.1°C 57.3°F14.1°C 88% 2.0 mph WNW3.2 kmh WNW 10.0 mph16.1 kmh 29.59 in1002.0 mb 0.00 in0.0 mm 0.00 in0.0 mm 0.00 in0.0 mm
01:20 AM 60.4°F15.8°C 57.8°F14.3°C 91% 5.0 mph WNW8.0 kmh WNW 11.0 mph17.7 kmh 29.59 in1002.0 mb 0.00 in0.0 mm 0.00 in0.0 mm 0.00 in0.0 mm
01:30 AM 59.2°F15.1°C 56.6°F13.7°C 91% 2.0 mph ENE3.2 kmh ENE 6.0 mph9.7 kmh 29.60 in1002.4 mb 0.10 in2.5 mm 0.60 in15.2 mm 0.10 in2.5 mm
01:40 AM 58.2°F14.6°C 55.6°F13.1°C 91% 2.0 mph WSW3.2 kmh WSW 5.0 mph8.0 kmh 29.60 in1002.4 mb 0.06 in1.5 mm 0.00 in0.0 mm 0.10 in2.5 mm
01:50 AM 57.8°F14.3°C 55.2°F12.9°C 91% 4.0 mph WNW6.4 kmh WNW 6.0 mph9.7 kmh 29.61 in1002.7 mb 0.06 in1.5 mm 0.00 in0.0 mm 0.10 in2.5 mm
02:00 AM 57.1°F13.9°C 54.5°F12.5°C 91% 2.0 mph NE3.2 kmh NE 8.0 mph12.9 kmh 29.61 in1002.7 mb 0.00 in0.0 mm 0.00 in0.0 mm 0.10 in2.5 mm
02:10 AM 56.0°F13.3°C 53.4°F11.9°C 91% Calm Calm 9.0 mph14.5 kmh 29.61 in1002.7 mb 0.00 in0.0 mm 0.00 in0.0 mm 0.10 in2.5 mm
02:20 AM 54.7°F12.6°C 51.8°F11.0°C 90% 2.0 mph SE3.2 kmh SE 9.0 mph14.5 kmh 29.61 in1002.7 mb 0.00 in0.0 mm 0.00 in0.0 mm 0.10 in2.5 mm
02:30 AM 53.6°F12.0°C 49.5°F9.7°C 86% 3.0 mph W4.8 kmh W 8.0 mph12.9 kmh 29.62 in1003.0 mb 0.00 in0.0 mm 0.00 in0.0 mm 0.10 in2.5 mm
02:40 AM 52.6°F11.4°C 48.5°F9.2°C 86% Calm Calm 5.0 mph8.0 kmh 29.62 in1003.0 mb 0.00 in0.0 mm 0.00 in0.0 mm 0.10 in2.5 mm
02:50 AM 51.8°F11.0°C 48.4°F9.1°C 88% Calm Calm -- 29.61 in1002.7 mb 0.00 in0.0 mm 0.00 in0.0 mm 0.10 in2.5 mm
03:00 AM 51.3°F10.7°C 47.9°F8.8°C 88% 2.0 mph E3.2 kmh E 6.0 mph9.7 kmh 29.61 in1002.7 mb 0.00 in0.0 mm 0.00 in0.0 mm 0.10 in2.5 mm
03:10 AM 51.5°F10.8°C 47.5°F8.6°C 86% 5.0 mph SW8.0 kmh SW 5.0 mph8.0 kmh 29.61 in1002.7 mb 0.00 in0.0 mm 0.00 in0.0 mm 0.10 in2.5 mm
03:20 AM 51.4°F10.8°C 46.1°F7.8°C 82% 2.0 mph NNE3.2 kmh NNE 4.0 mph6.4 kmh 29.62 in1003.0 mb 0.00 in0.0 mm 0.00 in0.0 mm 0.10 in2.5 mm
03:30 AM 51.2°F10.7°C 45.6°F7.6°C 81% 2.0 mph SW3.2 kmh SW 5.0 mph8.0 kmh 29.62 in1003.0 mb 0.00 in0.0 mm 0.00 in0.0 mm 0.10 in2.5 mm
03:40 AM 51.1°F10.6°C 45.2°F7.3°C 80% 1.0 mph W1.6 kmh W 4.0 mph6.4 kmh 29.62 in1003.0 mb 0.00 in0.0 mm 0.00 in0.0 mm 0.10 in2.5 mm
03:50 AM 51.1°F10.6°C 44.5°F6.9°C 78% Calm Calm 5.0 mph8.0 kmh 29.62 in1003.0 mb 0.00 in0.0 mm 0.00 in0.0 mm 0.10 in2.5 mm
04:00 AM 51.1°F10.6°C 44.2°F6.8°C 77% Calm Calm 3.0 mph4.8 kmh 29.62 in1003.0 mb 0.00 in0.0 mm 0.00 in0.0 mm 0.10 in2.5 mm
04:10 AM 50.6°F10.3°C 43.7°F6.5°C 77% 2.0 mph W3.2 kmh W 3.0 mph4.8 kmh 29.63 in1003.4 mb 0.00 in0.0 mm 0.00 in0.0 mm 0.10 in2.5 mm
04:20 AM 50.4°F10.2°C 43.5°F6.4°C 77% 1.0 mph NW1.6 kmh NW 2.0 mph3.2 kmh 29.63 in1003.4 mb 0.00 in0.0 mm 0.00 in0.0 mm 0.10 in2.5 mm
04:30 AM 49.8°F9.9°C 42.6°F5.9°C 76% 1.0 mph SW1.6 kmh SW 3.0 mph4.8 kmh 29.63 in1003.4 mb 0.00 in0.0 mm 0.00 in0.0 mm 0.10 in2.5 mm
04:40 AM 49.6°F9.8°C 42.7°F5.9°C 77% Calm Calm -- 29.63 in1003.4 mb 0.00 in0.0 mm 0.00 in0.0 mm 0.10 in2.5 mm
04:50 AM 48.6°F9.2°C 42.7°F5.9°C 80% Calm Calm 1.0 mph1.6 kmh 29.63 in1003.4 mb 0.00 in0.0 mm 0.00 in0.0 mm 0.10 in2.5 mm
05:00 AM 47.8°F8.8°C 42.6°F5.9°C 82% Calm Calm 1.0 mph1.6 kmh 29.63 in1003.4 mb 0.00 in0.0 mm 0.00 in0.0 mm 0.10 in2.5 mm
05:10 AM 47.3°F8.5°C 42.7°F5.9°C 84% 2.0 mph SW3.2 kmh SW 2.0 mph3.2 kmh 29.63 in1003.4 mb 0.00 in0.0 mm 0.00 in0.0 mm 0.10 in2.5 mm
05:20 AM 47.0°F8.3°C 42.7°F5.9°C 85% Calm Calm -- 29.63 in1003.4 mb 0.00 in0.0 mm 0.00 in0.0 mm 0.10 in2.5 mm
05:30 AM 46.6°F8.1°C 42.9°F6.1°C 87% Calm Calm 1.0 mph1.6 kmh 29.63 in1003.4 mb 0.00 in0.0 mm 0.00 in0.0 mm 0.10 in2.5 mm
05:40 AM 46.7°F8.2°C 43.3°F6.3°C 88% 1.0 mph WNW1.6 kmh WNW 2.0 mph3.2 kmh 29.64 in1003.7 mb 0.00 in0.0 mm 0.00 in0.0 mm 0.10 in2.5 mm
05:50 AM 46.5°F8.1°C 43.1°F6.2°C 88% 1.0 mph SW1.6 kmh SW 1.0 mph1.6 kmh 29.64 in1003.7 mb 0.00 in0.0 mm 0.00 in0.0 mm 0.10 in2.5 mm
06:00 AM 46.5°F8.1°C 43.1°F6.2°C 88% 1.0 mph SSW1.6 kmh SSW 2.0 mph3.2 kmh 29.64 in1003.7 mb 0.00 in0.0 mm 0.00 in0.0 mm 0.10 in2.5 mm
06:10 AM 46.7°F8.2°C 43.0°F6.1°C 87% Calm Calm 1.0 mph1.6 kmh 29.65 in1004.1 mb 0.00 in0.0 mm 0.00 in0.0 mm 0.10 in2.5 mm
06:20 AM 46.4°F8.0°C 42.8°F6.0°C 87% 1.0 mph SW1.6 kmh SW 2.0 mph3.2 kmh 29.65 in1004.1 mb 0.00 in0.0 mm 0.00 in0.0 mm 0.10 in2.5 mm
06:30 AM 46.4°F8.0°C 42.8°F6.0°C 87% 1.0 mph WSW1.6 kmh WSW 1.0 mph1.6 kmh 29.65 in1004.1 mb 0.00 in0.0 mm 0.00 in0.0 mm 0.10 in2.5 mm
06:40 AM 46.3°F7.9°C 42.7°F5.9°C 87% 2.0 mph SW3.2 kmh SW 2.0 mph3.2 kmh 29.65 in1004.1 mb 0.00 in0.0 mm 0.00 in0.0 mm 0.10 in2.5 mm
06:50 AM 46.5°F8.1°C 42.9°F6.1°C 87% Calm Calm 2.0 mph3.2 kmh 29.65 in1004.1 mb 0.00 in0.0 mm 0.00 in0.0 mm 0.10 in2.5 mm
07:00 AM 46.9°F8.3°C 42.9°F6.1°C 86% 2.0 mph SSW3.2 kmh SSW 3.0 mph4.8 kmh 29.64 in1003.7 mb 0.00 in0.0 mm 0.00 in0.0 mm 0.10 in2.5 mm
07:10 AM 48.0°F8.9°C 43.1°F6.2°C 83% 2.0 mph SW3.2 kmh SW 6.0 mph9.7 kmh 29.64 in1003.7 mb 0.00 in0.0 mm 0.00 in0.0 mm 0.10 in2.5 mm
07:20 AM 48.7°F9.3°C 43.1°F6.2°C 81% 1.0 mph SSW1.6 kmh SSW 3.0 mph4.8 kmh 29.64 in1003.7 mb 0.00 in0.0 mm 0.00 in0.0 mm 0.10 in2.5 mm
07:30 AM 49.3°F9.6°C 43.1°F6.2°C 79% 1.0 mph WSW1.6 kmh WSW 10.0 mph16.1 kmh 29.64 in1003.7 mb 0.00 in0.0 mm 0.00 in0.0 mm 0.10 in2.5 mm
07:40 AM 50.0°F10.0°C 43.8°F6.6°C 79% 3.0 mph W4.8 kmh W 6.0 mph9.7 kmh 29.64 in1003.7 mb 0.00 in0.0 mm 0.00 in0.0 mm 0.10 in2.5 mm
07:50 AM 50.6°F10.3°C 43.7°F6.5°C 77% 3.0 mph W4.8 kmh W 4.0 mph6.4 kmh 29.65 in1004.1 mb 0.00 in0.0 mm 0.00 in0.0 mm 0.10 in2.5 mm
08:00 AM 51.1°F10.6°C 43.5°F6.4°C 75% 1.0 mph WSW1.6 kmh WSW 5.0 mph8.0 kmh 29.65 in1004.1 mb 0.00 in0.0 mm 0.00 in0.0 mm 0.10 in2.5 mm
08:10 AM 51.6°F10.9°C 43.6°F6.4°C 74% 1.0 mph SW1.6 kmh SW 7.0 mph11.3 kmh 29.65 in1004.1 mb 0.00 in0.0 mm 0.00 in0.0 mm 0.10 in2.5 mm
08:20 AM 51.9°F11.1°C 42.8°F6.0°C 71% 3.0 mph S4.8 kmh S 4.0 mph6.4 kmh 29.65 in1004.1 mb 0.00 in0.0 mm 0.00 in0.0 mm 0.10 in2.5 mm
08:30 AM 52.0°F11.1°C 42.2°F5.7°C 69% 3.0 mph S4.8 kmh S 15.0 mph24.1 kmh 29.66 in1004.4 mb 0.00 in0.0 mm 0.00 in0.0 mm 0.10 in2.5 mm
08:40 AM 52.1°F11.2°C 40.7°F4.8°C 65% 8.0 mph S12.9 kmh S 12.0 mph19.3 kmh 29.66 in1004.4 mb 0.00 in0.0 mm 0.00 in0.0 mm 0.10 in2.5 mm
08:50 AM 51.9°F11.1°C 39.3°F4.1°C 62% 3.0 mph NW4.8 kmh NW 9.0 mph14.5 kmh 29.66 in1004.4 mb 0.00 in0.0 mm 0.00 in0.0 mm 0.10 in2.5 mm
09:00 AM 51.9°F11.1°C 38.5°F3.6°C 60% 3.0 mph S4.8 kmh S 13.0 mph20.9 kmh 29.67 in1004.7 mb 0.00 in0.0 mm 0.00 in0.0 mm 0.10 in2.5 mm
09:10 AM 51.9°F11.1°C 38.5°F3.6°C 60% 10.0 mph SW16.1 kmh SW 10.0 mph16.1 kmh 29.67 in1004.7 mb 0.00 in0.0 mm 0.00 in0.0 mm 0.10 in2.5 mm
09:20 AM 51.8°F11.0°C 38.4°F3.6°C 60% 3.0 mph SW4.8 kmh SW 7.0 mph11.3 kmh 29.68 in1005.1 mb 0.00 in0.0 mm 0.00 in0.0 mm 0.10 in2.5 mm
09:30 AM 51.9°F11.1°C 38.5°F3.6°C 60% 3.0 mph W4.8 kmh W 12.0 mph19.3 kmh 29.68 in1005.1 mb 0.00 in0.0 mm 0.00 in0.0 mm 0.10 in2.5 mm
09:40 AM 52.2°F11.2°C 37.4°F3.0°C 57% 4.0 mph W6.4 kmh W 7.0 mph11.3 kmh 29.68 in1005.1 mb 0.00 in0.0 mm 0.00 in0.0 mm 0.10 in2.5 mm
09:50 AM 52.2°F11.2°C 37.4°F3.0°C 57% 4.0 mph W6.4 kmh W 13.0 mph20.9 kmh 29.68 in1005.1 mb 0.00 in0.0 mm 0.00 in0.0 mm 0.10 in2.5 mm
10:00 AM 52.2°F11.2°C 38.8°F3.8°C 60% 3.0 mph WNW4.8 kmh WNW 9.0 mph14.5 kmh 29.67 in1004.7 mb 0.00 in0.0 mm 0.00 in0.0 mm 0.10 in2.5 mm
10:10 AM 52.5°F11.4°C 38.2°F3.4°C 58% 2.0 mph E3.2 kmh E 6.0 mph9.7 kmh 29.68 in1005.1 mb 0.00 in0.0 mm 0.00 in0.0 mm 0.10 in2.5 mm
10:20 AM 52.4°F11.3°C 37.6°F3.1°C 57% 2.0 mph S3.2 kmh S 11.0 mph17.7 kmh 29.67 in1004.7 mb 0.00 in0.0 mm 0.00 in0.0 mm 0.10 in2.5 mm
10:30 AM 52.7°F11.5°C 37.0°F2.8°C 55% 6.0 mph WNW9.7 kmh WNW 7.0 mph11.3 kmh 29.67 in1004.7 mb 0.00 in0.0 mm 0.00 in0.0 mm 0.10 in2.5 mm
10:40 AM 53.0°F11.7°C 36.8°F2.7°C 54% 2.0 mph WNW3.2 kmh WNW 6.0 mph9.7 kmh 29.67 in1004.7 mb 0.00 in0.0 mm 0.00 in0.0 mm 0.10 in2.5 mm
10:50 AM 52.9°F11.6°C 35.8°F2.1°C 52% 4.0 mph WNW6.4 kmh WNW 7.0 mph11.3 kmh 29.67 in1004.7 mb 0.00 in0.0 mm 0.00 in0.0 mm 0.10 in2.5 mm
11:00 AM 53.5°F11.9°C 38.2°F3.4°C 56% 8.0 mph SSE12.9 kmh SSE 9.0 mph14.5 kmh 29.68 in1005.1 mb 0.00 in0.0 mm 0.00 in0.0 mm 0.10 in2.5 mm
11:10 AM 53.2°F11.8°C 36.1°F2.3°C 52% 6.0 mph S9.7 kmh S 11.0 mph17.7 kmh 29.67 in1004.7 mb 0.00 in0.0 mm 0.00 in0.0 mm 0.10 in2.5 mm
11:20 AM 53.9°F12.2°C 38.6°F3.7°C 56% 7.0 mph W11.3 kmh W 8.0 mph12.9 kmh 29.67 in1004.7 mb 0.00 in0.0 mm 0.00 in0.0 mm 0.10 in2.5 mm
11:30 AM 53.6°F12.0°C 37.4°F3.0°C 54% 7.0 mph NW11.3 kmh NW 9.0 mph14.5 kmh 29.67 in1004.7 mb 0.00 in0.0 mm 0.00 in0.0 mm 0.10 in2.5 mm
11:40 AM 53.4°F11.9°C 36.2°F2.3°C 52% 3.0 mph SW4.8 kmh SW 9.0 mph14.5 kmh 29.67 in1004.7 mb 0.00 in0.0 mm 0.00 in0.0 mm 0.10 in2.5 mm
11:50 AM 53.3°F11.8°C 37.1°F2.8°C 54% 7.0 mph SSW11.3 kmh SSW 9.0 mph14.5 kmh 29.67 in1004.7 mb 0.00 in0.0 mm 0.00 in0.0 mm 0.10 in2.5 mm
12:00 PM 53.0°F11.7°C 37.3°F2.9°C 55% 5.0 mph NW8.0 kmh NW 9.0 mph14.5 kmh 29.68 in1005.1 mb 0.00 in0.0 mm 0.00 in0.0 mm 0.10 in2.5 mm
12:10 PM 53.2°F11.8°C 37.0°F2.8°C 54% 5.0 mph WSW8.0 kmh WSW 9.0 mph14.5 kmh 29.67 in1004.7 mb 0.00 in0.0 mm 0.00 in0.0 mm 0.10 in2.5 mm
12:20 PM 53.1°F11.7°C 36.4°F2.4°C 53% 12.0 mph WSW19.3 kmh WSW 12.0 mph19.3 kmh 29.68 in1005.1 mb 0.00 in0.0 mm 0.00 in0.0 mm 0.10 in2.5 mm
12:30 PM 52.8°F11.6°C 36.6°F2.6°C 54% 8.0 mph W12.9 kmh W 12.0 mph19.3 kmh 29.68 in1005.1 mb 0.00 in0.0 mm 0.00 in0.0 mm 0.10 in2.5 mm
12:40 PM 52.4°F11.3°C 36.3°F2.4°C 54% 2.0 mph WNW3.2 kmh WNW 10.0 mph16.1 kmh 29.67 in1004.7 mb 0.00 in0.0 mm 0.00 in0.0 mm 0.10 in2.5 mm
12:50 PM 53.0°F11.7°C 37.3°F2.9°C 55% 5.0 mph W8.0 kmh W 7.0 mph11.3 kmh 29.67 in1004.7 mb 0.00 in0.0 mm 0.00 in0.0 mm 0.10 in2.5 mm
01:00 PM 52.6°F11.4°C 36.5°F2.5°C 54% 6.0 mph W9.7 kmh W 11.0 mph17.7 kmh 29.66 in1004.4 mb 0.00 in0.0 mm 0.00 in0.0 mm 0.10 in2.5 mm
01:10 PM 52.3°F11.3°C 37.5°F3.1°C 57% 4.0 mph N6.4 kmh N 7.0 mph11.3 kmh 29.66 in1004.4 mb 0.00 in0.0 mm 0.00 in0.0 mm 0.10 in2.5 mm
01:20 PM 52.5°F11.4°C 36.8°F2.7°C 55% 1.0 mph W1.6 kmh W 5.0 mph8.0 kmh 29.66 in1004.4 mb 0.00 in0.0 mm 0.00 in0.0 mm 0.10 in2.5 mm
01:30 PM 53.0°F11.7°C 36.3°F2.4°C 53% 2.0 mph W3.2 kmh W 8.0 mph12.9 kmh 29.67 in1004.7 mb 0.00 in0.0 mm 0.00 in0.0 mm 0.10 in2.5 mm
01:40 PM 52.3°F11.3°C 37.1°F2.8°C 56% 5.0 mph WSW8.0 kmh WSW 9.0 mph14.5 kmh 29.68 in1005.1 mb 0.00 in0.0 mm 0.00 in0.0 mm 0.10 in2.5 mm
01:50 PM 52.0°F11.1°C 37.3°F2.9°C 57% 2.0 mph NNW3.2 kmh NNW 3.0 mph4.8 kmh 29.67 in1004.7 mb 0.00 in0.0 mm 0.00 in0.0 mm 0.10 in2.5 mm
02:00 PM 52.0°F11.1°C 35.4°F1.9°C 53% 5.0 mph W8.0 kmh W 10.0 mph16.1 kmh 29.67 in1004.7 mb 0.00 in0.0 mm 0.00 in0.0 mm 0.10 in2.5 mm
02:10 PM 52.1°F11.2°C 35.5°F1.9°C 53% 5.0 mph NW8.0 kmh NW 9.0 mph14.5 kmh 29.67 in1004.7 mb 0.00 in0.0 mm 0.00 in0.0 mm 0.10 in2.5 mm
02:20 PM 52.1°F11.2°C 36.0°F2.2°C 54% 1.0 mph WNW1.6 kmh WNW 11.0 mph17.7 kmh 29.68 in1005.1 mb 0.00 in0.0 mm 0.00 in0.0 mm 0.10 in2.5 mm
02:30 PM 52.2°F11.2°C 36.1°F2.3°C 54% 1.0 mph W1.6 kmh W 7.0 mph11.3 kmh 29.68 in1005.1 mb 0.00 in0.0 mm 0.00 in0.0 mm 0.10 in2.5 mm
02:40 PM 51.7°F10.9°C 35.6°F2.0°C 54% 3.0 mph NW4.8 kmh NW 6.0 mph9.7 kmh 29.68 in1005.1 mb 0.00 in0.0 mm 0.00 in0.0 mm 0.10 in2.5 mm
02:50 PM 51.3°F10.7°C 35.2°F1.8°C 54% 4.0 mph NW6.4 kmh NW 7.0 mph11.3 kmh 29.70 in1005.8 mb 0.00 in0.0 mm 0.00 in0.0 mm 0.10 in2.5 mm
03:00 PM 50.3°F10.2°C 34.8°F1.6°C 55% 3.0 mph NW4.8 kmh NW 8.0 mph12.9 kmh 29.70 in1005.8 mb 0.00 in0.0 mm 0.00 in0.0 mm 0.10 in2.5 mm
03:10 PM 50.1°F10.1°C 35.9°F2.2°C 58% 3.0 mph NNW4.8 kmh NNW 8.0 mph12.9 kmh 29.70 in1005.8 mb 0.00 in0.0 mm 0.00 in0.0 mm 0.10 in2.5 mm
03:20 PM 49.7°F9.8°C 35.1°F1.7°C 57% 2.0 mph NW3.2 kmh NW 9.0 mph14.5 kmh 29.71 in1006.1 mb 0.00 in0.0 mm 0.00 in0.0 mm 0.10 in2.5 mm
03:30 PM 49.2°F9.6°C 35.5°F1.9°C 59% 6.0 mph WNW9.7 kmh WNW 6.0 mph9.7 kmh 29.72 in1006.4 mb 0.00 in0.0 mm 0.00 in0.0 mm 0.10 in2.5 mm
03:40 PM 48.7°F9.3°C 35.5°F1.9°C 60% 2.0 mph WSW3.2 kmh WSW 6.0 mph9.7 kmh 29.73 in1006.8 mb 0.00 in0.0 mm 0.00 in0.0 mm 0.10 in2.5 mm
03:50 PM 48.4°F9.1°C 35.2°F1.8°C 60% 4.0 mph NW6.4 kmh NW 7.0 mph11.3 kmh 29.74 in1007.1 mb 0.00 in0.0 mm 0.00 in0.0 mm 0.10 in2.5 mm
04:00 PM 48.0°F8.9°C 34.8°F1.6°C 60% 4.0 mph WNW6.4 kmh WNW 6.0 mph9.7 kmh 29.74 in1007.1 mb 0.00 in0.0 mm 0.00 in0.0 mm 0.10 in2.5 mm
04:10 PM 47.7°F8.7°C 34.9°F1.6°C 61% 6.0 mph W9.7 kmh W 10.0 mph16.1 kmh 29.75 in1007.5 mb 0.00 in0.0 mm 0.00 in0.0 mm 0.10 in2.5 mm
04:20 PM 47.3°F8.5°C 35.4°F1.9°C 63% 6.0 mph W9.7 kmh W 6.0 mph9.7 kmh 29.76 in1007.8 mb 0.00 in0.0 mm 0.00 in0.0 mm 0.10 in2.5 mm
04:30 PM 46.9°F8.3°C 34.6°F1.4°C 62% 4.0 mph WNW6.4 kmh WNW 9.0 mph14.5 kmh 29.76 in1007.8 mb 0.00 in0.0 mm 0.00 in0.0 mm 0.10 in2.5 mm
04:40 PM 46.6°F8.1°C 34.7°F1.5°C 63% 7.0 mph SW11.3 kmh SW 9.0 mph14.5 kmh 29.77 in1008.1 mb 0.00 in0.0 mm 0.00 in0.0 mm 0.10 in2.5 mm
04:50 PM 46.3°F7.9°C 34.8°F1.6°C 64% 8.0 mph WNW12.9 kmh WNW 8.0 mph12.9 kmh 29.77 in1008.1 mb 0.00 in0.0 mm 0.00 in0.0 mm 0.10 in2.5 mm
05:00 PM 46.0°F7.8°C 34.5°F1.4°C 64% 6.0 mph WNW9.7 kmh WNW 9.0 mph14.5 kmh 29.77 in1008.1 mb 0.00 in0.0 mm 0.00 in0.0 mm 0.10 in2.5 mm
05:10 PM 45.7°F7.6°C 35.0°F1.7°C 66% 3.0 mph NW4.8 kmh NW 8.0 mph12.9 kmh 29.78 in1008.5 mb 0.00 in0.0 mm 0.00 in0.0 mm 0.10 in2.5 mm
05:20 PM 45.5°F7.5°C 35.2°F1.8°C 67% 1.0 mph N1.6 kmh N 7.0 mph11.3 kmh 29.79 in1008.8 mb 0.00 in0.0 mm 0.00 in0.0 mm 0.10 in2.5 mm
05:30 PM 45.0°F7.2°C 35.1°F1.7°C 68% 3.0 mph WSW4.8 kmh WSW 6.0 mph9.7 kmh 29.80 in1009.1 mb 0.00 in0.0 mm 0.00 in0.0 mm 0.10 in2.5 mm
05:40 PM 44.5°F6.9°C 34.6°F1.4°C 68% 8.0 mph W12.9 kmh W 10.0 mph16.1 kmh 29.81 in1009.5 mb 0.00 in0.0 mm 0.00 in0.0 mm 0.10 in2.5 mm
05:50 PM 44.2°F6.8°C 34.7°F1.5°C 69% 6.0 mph NW9.7 kmh NW 10.0 mph16.1 kmh 29.81 in1009.5 mb 0.00 in0.0 mm 0.00 in0.0 mm 0.10 in2.5 mm
06:00 PM 44.0°F6.7°C 34.9°F1.6°C 70% 2.0 mph WNW3.2 kmh WNW 10.0 mph16.1 kmh 29.81 in1009.5 mb 0.00 in0.0 mm 0.00 in0.0 mm 0.10 in2.5 mm
06:10 PM 43.8°F6.6°C 34.3°F1.3°C 69% 6.0 mph NNE9.7 kmh NNE 12.0 mph19.3 kmh 29.81 in1009.5 mb 0.00 in0.0 mm 0.00 in0.0 mm 0.10 in2.5 mm
06:20 PM 43.6°F6.4°C 34.1°F1.2°C 69% 3.0 mph W4.8 kmh W 9.0 mph14.5 kmh 29.82 in1009.8 mb 0.00 in0.0 mm 0.00 in0.0 mm 0.10 in2.5 mm
06:30 PM 43.3°F6.3°C 34.5°F1.4°C 71% 5.0 mph NW8.0 kmh NW 6.0 mph9.7 kmh 29.82 in1009.8 mb 0.00 in0.0 mm 0.00 in0.0 mm 0.10 in2.5 mm
06:40 PM 43.3°F6.3°C 34.2°F1.2°C 70% 2.0 mph WNW3.2 kmh WNW 11.0 mph17.7 kmh 29.82 in1009.8 mb 0.00 in0.0 mm 0.00 in0.0 mm 0.10 in2.5 mm
06:50 PM 43.2°F6.2°C 34.1°F1.2°C 70% 5.0 mph NNE8.0 kmh NNE 5.0 mph8.0 kmh 29.82 in1009.8 mb 0.00 in0.0 mm 0.00 in0.0 mm 0.10 in2.5 mm
07:00 PM 43.1°F6.2°C 34.4°F1.3°C 71% 2.0 mph NW3.2 kmh NW 6.0 mph9.7 kmh 29.82 in1009.8 mb 0.00 in0.0 mm 0.00 in0.0 mm 0.10 in2.5 mm
07:10 PM 42.9°F6.1°C 33.8°F1.0°C 70% 3.0 mph WNW4.8 kmh WNW 9.0 mph14.5 kmh 29.82 in1009.8 mb 0.00 in0.0 mm 0.00 in0.0 mm 0.10 in2.5 mm
07:20 PM 42.8°F6.0°C 33.7°F0.9°C 70% 6.0 mph WNW9.7 kmh WNW 9.0 mph14.5 kmh 29.83 in1010.2 mb 0.00 in0.0 mm 0.00 in0.0 mm 0.10 in2.5 mm
07:30 PM 42.8°F6.0°C 33.4°F0.8°C 69% 2.0 mph NW3.2 kmh NW 8.0 mph12.9 kmh 29.83 in1010.2 mb 0.00 in0.0 mm 0.00 in0.0 mm 0.10 in2.5 mm
07:40 PM 42.7°F5.9°C 33.6°F0.9°C 70% 5.0 mph WNW8.0 kmh WNW 9.0 mph14.5 kmh 29.84 in1010.5 mb 0.00 in0.0 mm 0.00 in0.0 mm 0.10 in2.5 mm
07:50 PM 42.5°F5.8°C 33.4°F0.8°C 70% 3.0 mph NW4.8 kmh NW 8.0 mph12.9 kmh 29.84 in1010.5 mb 0.00 in0.0 mm 0.00 in0.0 mm 0.10 in2.5 mm
08:00 PM 42.4°F5.8°C 33.0°F0.6°C 69% 6.0 mph W9.7 kmh W 8.0 mph12.9 kmh 29.84 in1010.5 mb 0.00 in0.0 mm 0.00 in0.0 mm 0.10 in2.5 mm
08:10 PM 42.1°F5.6°C 33.0°F0.6°C 70% 2.0 mph WNW3.2 kmh WNW 5.0 mph8.0 kmh 29.84 in1010.5 mb 0.00 in0.0 mm 0.00 in0.0 mm 0.10 in2.5 mm
08:20 PM 41.7°F5.4°C 33.0°F0.6°C 71% 5.0 mph W8.0 kmh W 5.0 mph8.0 kmh 29.84 in1010.5 mb 0.00 in0.0 mm 0.00 in0.0 mm 0.10 in2.5 mm
08:30 PM 41.5°F5.3°C 32.5°F0.3°C 70% 5.0 mph WSW8.0 kmh WSW 12.0 mph19.3 kmh 29.84 in1010.5 mb 0.00 in0.0 mm 0.00 in0.0 mm 0.10 in2.5 mm
08:40 PM 41.5°F5.3°C 32.5°F0.3°C 70% 6.0 mph WNW9.7 kmh WNW 9.0 mph14.5 kmh 29.85 in1010.8 mb 0.00 in0.0 mm 0.00 in0.0 mm 0.10 in2.5 mm
08:50 PM 41.5°F5.3°C 32.5°F0.3°C 70% 4.0 mph W6.4 kmh W 6.0 mph9.7 kmh 29.85 in1010.8 mb 0.00 in0.0 mm 0.00 in0.0 mm 0.10 in2.5 mm
09:00 PM 41.3°F5.2°C 31.9°F-0.1°C 69% 2.0 mph WNW3.2 kmh WNW 7.0 mph11.3 kmh 29.85 in1010.8 mb 0.00 in0.0 mm 0.00 in0.0 mm 0.10 in2.5 mm
09:10 PM 41.3°F5.2°C 31.9°F-0.1°C 69% 3.0 mph N4.8 kmh N 8.0 mph12.9 kmh 29.85 in1010.8 mb 0.00 in0.0 mm 0.00 in0.0 mm 0.10 in2.5 mm
09:20 PM 41.1°F5.1°C 31.7°F-0.2°C 69% 4.0 mph WSW6.4 kmh WSW 6.0 mph9.7 kmh 29.85 in1010.8 mb 0.00 in0.0 mm 0.00 in0.0 mm 0.10 in2.5 mm
09:30 PM 41.0°F5.0°C 32.0°F0.0°C 70% 5.0 mph NW8.0 kmh NW 5.0 mph8.0 kmh 29.85 in1010.8 mb 0.00 in0.0 mm 0.00 in0.0 mm 0.10 in2.5 mm
09:40 PM 40.9°F4.9°C 31.5°F-0.3°C 69% 5.0 mph NNW8.0 kmh NNW 11.0 mph17.7 kmh 29.85 in1010.8 mb 0.00 in0.0 mm 0.00 in0.0 mm 0.10 in2.5 mm
09:50 PM 40.7°F4.8°C 31.7°F-0.2°C 70% 3.0 mph WNW4.8 kmh WNW 8.0 mph12.9 kmh 29.86 in1011.2 mb 0.00 in0.0 mm 0.00 in0.0 mm 0.10 in2.5 mm
10:00 PM 40.6°F4.8°C 32.0°F0.0°C 71% 4.0 mph WNW6.4 kmh WNW 6.0 mph9.7 kmh 29.86 in1011.2 mb 0.00 in0.0 mm 0.00 in0.0 mm 0.10 in2.5 mm
10:10 PM 40.4°F4.7°C 31.8°F-0.1°C 71% 3.0 mph WNW4.8 kmh WNW 8.0 mph12.9 kmh 29.87 in1011.5 mb 0.00 in0.0 mm 0.00 in0.0 mm 0.10 in2.5 mm
10:20 PM 40.3°F4.6°C 31.3°F-0.4°C 70% 4.0 mph NW6.4 kmh NW 8.0 mph12.9 kmh 29.88 in1011.9 mb 0.00 in0.0 mm 0.00 in0.0 mm 0.10 in2.5 mm
10:30 PM 40.1°F4.5°C 31.1°F-0.5°C 70% 6.0 mph WNW9.7 kmh WNW 8.0 mph12.9 kmh 29.88 in1011.9 mb 0.00 in0.0 mm 0.00 in0.0 mm 0.10 in2.5 mm
10:40 PM 40.0°F4.4°C 30.7°F-0.7°C 69% 3.0 mph NW4.8 kmh NW 8.0 mph12.9 kmh 29.88 in1011.9 mb 0.00 in0.0 mm 0.00 in0.0 mm 0.10 in2.5 mm
10:50 PM 39.9°F4.4°C 30.6°F-0.8°C 69% 3.0 mph NW4.8 kmh NW 7.0 mph11.3 kmh 29.88 in1011.9 mb 0.00 in0.0 mm 0.00 in0.0 mm 0.10 in2.5 mm
11:00 PM 39.7°F4.3°C 30.4°F-0.9°C 69% 3.0 mph WNW4.8 kmh WNW 8.0 mph12.9 kmh 29.89 in1012.2 mb 0.00 in0.0 mm 0.00 in0.0 mm 0.10 in2.5 mm
11:10 PM 39.5°F4.2°C 30.5°F-0.8°C 70% 7.0 mph WSW11.3 kmh WSW 14.0 mph22.5 kmh 29.88 in1011.9 mb 0.00 in0.0 mm 0.00 in0.0 mm 0.10 in2.5 mm
11:20 PM 39.0°F3.9°C 30.1°F-1.1°C 70% 7.0 mph NW11.3 kmh NW 11.0 mph17.7 kmh 29.87 in1011.5 mb 0.00 in0.0 mm 0.00 in0.0 mm 0.10 in2.5 mm
11:30 PM 38.7°F3.7°C 30.1°F-1.1°C 71% 3.0 mph W4.8 kmh W 5.0 mph8.0 kmh 29.87 in1011.5 mb 0.00 in0.0 mm 0.00 in0.0 mm 0.10 in2.5 mm
11:40 PM 38.6°F3.7°C 30.4°F-0.9°C 72% 8.0 mph WSW12.9 kmh WSW 8.0 mph12.9 kmh 29.86 in1011.2 mb 0.00 in0.0 mm 0.00 in0.0 mm 0.10 in2.5 mm
11:50 PM 38.7°F3.7°C 30.5°F-0.8°C 72% 6.0 mph NW9.7 kmh NW 6.0 mph9.7 kmh 29.88 in1011.9 mb 0.00 in0.0 mm 0.00 in0.0 mm 0.10 in2.5 mm